Time;durP1;ratioP1;P1;durP2;ratioP2;P2;SDS_P1;SDS_P2;PMS_P1;PMS_P2;Temp;Humidity;BMP_temperature;BMP_pressure;BME280_temperature;BME280_humidity;BME280_pressure;Samples;Min_cycle;Max_cycle;Signal;HPM_P1;HPM_P2
2023/03/10 16:26:20;;;;;;;17.33;10.57;;;0.80;99.90;;;;;;5118079;27;20462;-69
2023/03/10 16:28:51;;;;;;;16.02;8.32;;;0.80;99.90;;;;;;5118557;28;20122;-69
2023/03/10 16:31:19;;;;;;;14.93;8.80;;;0.80;99.90;;;;;;5148131;27;20039;-71
2023/03/10 16:33:46;;;;;;;14.75;7.97;;;0.80;99.90;;;;;;5118024;28;20036;-69
2023/03/10 16:36:15;;;;;;;14.18;8.45;;;0.80;99.90;;;;;;5130630;28;20040;-71
2023/03/10 16:38:41;;;;;;;14.63;8.40;;;0.80;99.90;;;;;;5134251;28;20040;-69
2023/03/10 16:41:08;;;;;;;13.77;8.30;;;1.20;99.90;;;;;;5116316;28;20555;-70
2023/03/10 16:43:34;;;;;;;13.52;8.00;;;1.00;99.90;;;;;;5148437;27;20050;-68
2023/03/10 16:46:13;;;;;;;13.63;7.72;;;0.80;99.90;;;;;;5116686;28;20523;-72
2023/03/10 16:48:41;;;;;;;15.55;9.05;;;0.80;99.90;;;;;;5148010;27;20063;-69
2023/03/10 16:51:38;;;;;;;15.15;8.15;;;0.80;99.90;;;;;;5117186;28;20039;-70
2023/03/10 16:54:10;;;;;;;15.40;8.73;;;0.80;99.90;;;;;;5104111;28;20051;-70
2023/03/10 16:56:39;;;;;;;14.27;8.70;;;0.80;99.90;;;;;;5131153;28;20078;-71
2023/03/10 16:59:05;;;;;;;10.75;7.60;;;0.80;99.90;;;;;;5134671;28;20043;-71
2023/03/10 17:01:31;;;;;;;16.67;9.55;;;0.80;99.90;;;;;;5115767;28;20550;-71
2023/03/10 17:03:57;;;;;;;12.40;7.45;;;0.70;99.90;;;;;;5100802;28;20093;-71
2023/03/10 17:06:26;;;;;;;12.48;7.90;;;0.70;99.90;;;;;;5133828;28;20044;-71
2023/03/10 17:08:53;;;;;;;13.38;6.85;;;0.70;99.90;;;;;;5117669;28;20063;-73
2023/03/10 17:11:25;;;;;;;12.43;7.13;;;0.70;99.90;;;;;;5084149;28;20055;-72
2023/03/10 17:13:56;;;;;;;12.70;7.90;;;0.70;99.90;;;;;;5117101;28;20047;-73
2023/03/10 17:16:26;;;;;;;9.63;5.97;;;0.70;99.90;;;;;;5117489;28;20048;-73
2023/03/10 17:18:57;;;;;;;10.48;5.85;;;0.60;99.90;;;;;;5117016;28;20400;-73
2023/03/10 17:21:25;;;;;;;9.75;5.57;;;0.70;99.90;;;;;;5117941;28;20035;-73
2023/03/10 17:23:51;;;;;;;10.25;5.80;;;0.60;99.90;;;;;;5116680;28;20043;-75
2023/03/10 17:26:18;;;;;;;8.70;5.22;;;0.60;99.90;;;;;;5117585;28;20062;-72
2023/03/10 17:28:46;;;;;;;9.13;5.13;;;0.60;99.90;;;;;;5117648;28;20552;-74
2023/03/10 17:31:19;;;;;;;8.20;4.22;;;0.80;99.90;;;;;;5116504;28;20103;-74
2023/03/10 17:33:45;;;;;;;7.85;4.28;;;0.50;99.90;;;;;;5117326;28;20059;-74
2023/03/10 17:36:13;;;;;;;7.70;4.35;;;0.70;99.90;;;;;;5126856;28;20040;-77
2023/03/10 17:38:40;;;;;;;8.82;4.70;;;0.60;99.90;;;;;;5120024;28;20066;-74
2023/03/10 17:41:07;;;;;;;6.97;4.25;;;0.50;99.90;;;;;;5121213;27;20040;-74
2023/03/10 17:43:34;;;;;;;10.05;4.63;;;0.40;99.90;;;;;;5120260;28;20411;-74
2023/03/10 17:46:03;;;;;;;9.05;5.15;;;0.70;99.90;;;;;;5120329;28;20074;-72
2023/03/10 17:48:29;;;;;;;7.78;4.68;;;0.40;99.90;;;;;;5101343;28;20052;-72
2023/03/10 17:50:56;;;;;;;9.07;5.05;;;0.70;99.90;;;;;;5102483;28;20044;-73
2023/03/10 17:53:23;;;;;;;8.65;4.43;;;0.40;99.90;;;;;;5082968;28;20040;-74
2023/03/10 17:55:48;;;;;;;7.25;3.65;;;0.60;99.90;;;;;;5085569;28;20039;-73
2023/03/10 17:58:14;;;;;;;8.45;4.30;;;0.30;99.90;;;;;;5084403;28;20099;-75
2023/03/10 18:00:40;;;;;;;8.32;4.15;;;0.70;99.90;;;;;;5068023;28;20032;-74
2023/03/10 18:03:05;;;;;;;7.90;4.30;;;0.30;99.90;;;;;;5085188;28;20051;-75
2023/03/10 18:05:31;;;;;;;8.27;3.70;;;0.30;99.90;;;;;;5100720;28;20518;-74
2023/03/10 18:07:58;;;;;;;8.68;4.22;;;0.30;99.90;;;;;;5085090;28;20109;-76
2023/03/10 18:10:24;;;;;;;9.35;4.63;;;0.20;99.90;;;;;;5100506;28;20044;-76
2023/03/10 18:12:50;;;;;;;8.77;4.07;;;0.20;99.90;;;;;;5102100;28;20043;-75
2023/03/10 18:15:16;;;;;;;10.32;4.80;;;0.30;99.90;;;;;;5084184;28;20120;-76
2023/03/10 18:17:42;;;;;;;8.80;4.50;;;0.20;99.90;;;;;;5084486;28;20044;-75
2023/03/10 18:20:12;;;;;;;7.82;4.70;;;0.20;99.90;;;;;;5084259;28;20088;-76
2023/03/10 18:22:38;;;;;;;9.07;5.05;;;0.20;99.90;;;;;;5083871;28;20028;-74
2023/03/10 18:25:04;;;;;;;8.00;4.18;;;0.70;99.90;;;;;;5067898;28;20077;-73
2023/03/10 18:27:31;;;;;;;8.50;4.70;;;0.20;99.90;;;;;;5100402;28;20040;-74
2023/03/10 18:29:58;;;;;;;8.65;4.38;;;0.20;99.90;;;;;;5118914;28;20048;-75
2023/03/10 18:32:26;;;;;;;10.55;5.95;;;0.20;99.90;;;;;;5117389;28;20043;-72
2023/03/10 18:34:53;;;;;;;10.55;5.05;;;0.30;99.90;;;;;;5084646;28;20498;-73
2023/03/10 18:37:19;;;;;;;8.57;5.18;;;0.20;99.90;;;;;;5067391;28;20036;-75
2023/03/10 18:39:45;;;;;;;8.30;4.35;;;0.40;99.90;;;;;;5100235;28;20040;-75
2023/03/10 18:42:11;;;;;;;8.30;4.68;;;0.30;99.90;;;;;;5133001;27;20040;-72
2023/03/10 18:44:37;;;;;;;7.70;4.72;;;0.20;99.90;;;;;;5083313;28;20043;-74
2023/03/10 18:47:03;;;;;;;12.43;4.72;;;0.20;99.90;;;;;;5083436;28;20044;-72
2023/03/10 18:49:29;;;;;;;9.35;5.10;;;0.20;99.90;;;;;;5099463;28;20051;-72
2023/03/10 18:51:54;;;;;;;6.82;4.22;;;0.20;99.90;;;;;;5067567;28;20047;-72
2023/03/10 18:54:20;;;;;;;7.95;4.13;;;0.30;99.90;;;;;;5067449;28;20048;-73
2023/03/10 18:56:46;;;;;;;8.02;3.95;;;0.30;99.90;;;;;;5101387;28;20071;-72
2023/03/10 18:59:12;;;;;;;6.70;3.72;;;0.30;99.90;;;;;;5102196;28;20047;-74
2023/03/10 19:01:37;;;;;;;8.15;3.95;;;0.30;99.90;;;;;;5100730;28;20502;-73
2023/03/10 19:04:03;;;;;;;6.38;3.90;;;0.30;99.90;;;;;;5085486;28;20055;-74
2023/03/10 19:06:31;;;;;;;8.38;3.63;;;0.30;99.90;;;;;;5067519;28;20052;-78
2023/03/10 19:08:57;;;;;;;7.30;3.75;;;0.20;99.90;;;;;;5084497;28;20048;-74
2023/03/10 19:11:23;;;;;;;5.82;2.38;;;0.90;99.90;;;;;;5068159;28;20092;-73
2023/03/10 19:13:49;;;;;;;7.32;3.30;;;0.30;99.90;;;;;;5101501;28;20156;-73
2023/03/10 19:16:16;;;;;;;6.70;3.08;;;0.80;99.90;;;;;;5102008;28;20091;-75
2023/03/10 19:18:42;;;;;;;4.10;2.30;;;0.20;99.90;;;;;;5100979;28;20044;-74
2023/03/10 19:21:08;;;;;;;4.05;2.35;;;0.30;99.90;;;;;;5101853;28;20522;-72
2023/03/10 19:23:35;;;;;;;5.55;3.30;;;0.60;99.90;;;;;;5100676;28;20094;-72
2023/03/10 19:26:01;;;;;;;5.47;2.63;;;0.20;99.90;;;;;;5100071;28;20101;-73
2023/03/10 19:28:27;;;;;;;4.63;1.98;;;0.30;99.90;;;;;;5098160;28;20043;-72
2023/03/10 19:30:53;;;;;;;3.58;1.90;;;0.30;99.90;;;;;;5114672;28;20043;-73
2023/03/10 19:33:19;;;;;;;3.63;1.80;;;0.30;99.90;;;;;;5081917;28;20135;-71
2023/03/10 19:35:45;;;;;;;4.22;1.90;;;0.50;99.90;;;;;;5097193;28;20071;-71
2023/03/10 19:38:10;;;;;;;5.38;1.95;;;0.30;99.90;;;;;;5100299;28;20044;-72
2023/03/10 19:40:37;;;;;;;4.13;2.00;;;0.30;99.90;;;;;;5098886;28;20135;-71
2023/03/10 19:43:03;;;;;;;3.30;1.63;;;0.30;99.90;;;;;;5084036;28;20054;-71
2023/03/10 19:45:29;;;;;;;3.40;2.00;;;0.30;99.90;;;;;;5099437;28;20055;-71
2023/03/10 19:47:58;;;;;;;3.17;1.98;;;0.30;99.90;;;;;;5099446;28;20131;-70
2023/03/10 19:50:25;;;;;;;3.72;1.67;;;0.30;99.90;;;;;;5100527;28;20044;-73
2023/03/10 19:52:50;;;;;;;3.70;1.80;;;0.30;99.90;;;;;;5099759;28;20083;-72
2023/03/10 19:55:21;;;;;;;3.90;1.67;;;0.30;99.90;;;;;;5102121;28;20043;-72
2023/03/10 19:57:49;;;;;;;3.55;1.98;;;0.30;99.90;;;;;;5098771;28;20165;-71
2023/03/10 20:00:20;;;;;;;4.63;2.17;;;0.30;99.90;;;;;;5101480;28;20047;-73
2023/03/10 20:02:46;;;;;;;3.30;1.95;;;0.30;99.90;;;;;;5101243;28;20099;-71
2023/03/10 20:05:15;;;;;;;3.17;2.03;;;0.40;99.90;;;;;;5083483;28;20121;-72
2023/03/10 20:07:42;;;;;;;2.90;1.67;;;0.30;99.90;;;;;;5083597;28;20505;-71
2023/03/10 20:10:09;;;;;;;2.90;1.70;;;0.30;99.90;;;;;;5081408;28;20047;-73
2023/03/10 20:12:35;;;;;;;3.28;1.63;;;0.30;99.90;;;;;;5083659;28;20042;-71
2023/03/10 20:15:01;;;;;;;3.33;2.17;;;0.30;99.90;;;;;;5098551;28;20040;-71
2023/03/10 20:17:27;;;;;;;4.45;2.30;;;0.30;99.90;;;;;;5099907;28;20543;-70
2023/03/10 20:19:53;;;;;;;2.78;1.67;;;0.30;99.90;;;;;;5099631;28;20448;-71
2023/03/10 20:22:19;;;;;;;4.20;2.35;;;0.30;99.90;;;;;;5099285;28;20036;-72
2023/03/10 20:24:45;;;;;;;2.55;1.42;;;0.20;99.90;;;;;;5082850;28;20492;-70
2023/03/10 20:27:11;;;;;;;2.67;1.35;;;0.20;99.90;;;;;;5098506;28;20041;-71
2023/03/10 20:29:37;;;;;;;3.60;1.45;;;0.20;99.90;;;;;;5099940;28;20040;-72
2023/03/10 20:32:03;;;;;;;2.05;1.38;;;0.40;99.90;;;;;;5097894;28;20123;-72
2023/03/10 20:34:29;;;;;;;3.13;1.40;;;0.10;99.90;;;;;;5082932;28;20040;-71
2023/03/10 20:36:55;;;;;;;3.42;1.83;;;0.20;99.90;;;;;;5099220;28;20063;-74
2023/03/10 20:39:21;;;;;;;4.03;1.80;;;0.20;99.90;;;;;;5081667;28;20488;-74
2023/03/10 20:41:47;;;;;;;2.45;1.50;;;0.20;99.90;;;;;;5084545;28;20434;-73
2023/03/10 20:44:13;;;;;;;2.33;1.40;;;0.20;99.90;;;;;;5082739;28;20050;-73
2023/03/10 20:46:41;;;;;;;4.97;2.63;;;0.20;99.90;;;;;;5085381;28;20100;-72
2023/03/10 20:49:06;;;;;;;3.42;1.95;;;0.10;99.90;;;;;;5100628;28;20072;-72
2023/03/10 20:51:32;;;;;;;3.65;1.38;;;0.10;99.90;;;;;;5101602;28;20048;-75
2023/03/10 20:53:58;;;;;;;1.80;1.13;;;0.10;99.90;;;;;;5101254;28;20054;-73
2023/03/10 20:56:24;;;;;;;1.77;1.10;;;0.30;99.90;;;;;;5101143;28;20482;-71
2023/03/10 20:58:50;;;;;;;2.42;1.20;;;-0.10;99.90;;;;;;5083812;28;20052;-73
2023/03/10 21:01:18;;;;;;;2.00;1.08;;;-0.10;99.90;;;;;;5081202;28;20048;-74
2023/03/10 21:03:44;;;;;;;1.60;1.02;;;-0.20;99.90;;;;;;5099281;28;20036;-73
2023/03/10 21:06:10;;;;;;;2.25;1.00;;;-0.10;99.90;;;;;;5080948;28;20055;-72
2023/03/10 21:08:36;;;;;;;2.70;1.30;;;-0.10;99.90;;;;;;5099510;28;20044;-75
2023/03/10 21:11:02;;;;;;;2.30;1.23;;;0.00;99.90;;;;;;5099114;28;20048;-73
2023/03/10 21:13:28;;;;;;;3.00;1.58;;;0.00;99.90;;;;;;5102901;28;20539;-72
2023/03/10 21:15:54;;;;;;;2.50;1.33;;;0.40;99.90;;;;;;5103409;28;20048;-72
2023/03/10 21:18:22;;;;;;;2.22;1.20;;;0.00;99.90;;;;;;5100898;28;20044;-72
2023/03/10 21:20:48;;;;;;;2.63;1.05;;;0.00;99.90;;;;;;5119179;28;20047;-73
2023/03/10 21:23:13;;;;;;;2.95;1.20;;;0.00;99.90;;;;;;5082936;28;20051;-71
2023/03/10 21:25:39;;;;;;;1.60;0.90;;;-0.10;99.90;;;;;;5101542;28;20063;-72
2023/03/10 21:28:05;;;;;;;2.85;1.00;;;-0.10;99.90;;;;;;5100390;28;20055;-73
2023/03/10 21:30:32;;;;;;;2.78;1.17;;;-0.10;99.90;;;;;;5101391;28;20055;-72
2023/03/10 21:32:58;;;;;;;2.17;1.13;;;-0.30;99.90;;;;;;5099233;28;20147;-72
2023/03/10 21:35:25;;;;;;;2.22;1.17;;;0.00;99.90;;;;;;5100007;28;20132;-73
2023/03/10 21:37:52;;;;;;;2.15;1.23;;;-0.40;99.90;;;;;;5084387;28;20044;-73
2023/03/10 21:40:19;;;;;;;2.67;1.20;;;-0.50;99.90;;;;;;5080583;28;20058;-73
2023/03/10 21:42:48;;;;;;;1.92;1.02;;;-0.50;99.90;;;;;;5101854;28;20051;-72
2023/03/10 21:45:17;;;;;;;2.97;1.20;;;0.50;99.90;;;;;;5100054;28;20054;-72
2023/03/10 21:47:42;;;;;;;3.10;1.17;;;-0.50;99.90;;;;;;5100803;28;20619;-71
2023/03/10 21:50:11;;;;;;;2.50;1.05;;;-0.50;99.90;;;;;;5084265;28;20071;-71
2023/03/10 21:52:38;;;;;;;1.42;0.93;;;-0.60;99.90;;;;;;5130920;27;20048;-71
2023/03/10 21:55:04;;;;;;;1.70;1.10;;;-0.60;99.90;;;;;;5101316;28;20040;-71
2023/03/10 21:57:30;;;;;;;2.80;1.17;;;-0.60;99.90;;;;;;5099602;28;20044;-71
2023/03/10 21:59:56;;;;;;;3.10;1.23;;;-0.40;99.90;;;;;;5101022;28;20055;-71
2023/03/10 22:02:26;;;;;;;2.35;1.20;;;-0.50;99.90;;;;;;5103817;28;20040;-71
2023/03/10 22:04:53;;;;;;;4.22;1.85;;;-0.40;99.90;;;;;;5100240;28;20051;-73
2023/03/10 22:07:19;;;;;;;2.72;1.30;;;-0.40;99.90;;;;;;5085271;28;20072;-72
2023/03/10 22:09:44;;;;;;;3.30;1.30;;;-0.20;99.90;;;;;;5100626;28;20458;-75
2023/03/10 22:12:11;;;;;;;2.60;1.35;;;-0.30;99.90;;;;;;5102781;28;20108;-74
2023/03/10 22:14:38;;;;;;;3.08;1.35;;;-0.30;99.90;;;;;;5100681;28;20437;-74
2023/03/10 22:17:04;;;;;;;4.63;1.40;;;-0.30;99.90;;;;;;5085817;28;20044;-74
2023/03/10 22:19:30;;;;;;;4.38;1.40;;;-0.20;99.90;;;;;;5100824;28;20048;-74
2023/03/10 22:21:55;;;;;;;2.70;1.25;;;-0.20;99.90;;;;;;5085285;28;20048;-75
2023/03/10 22:24:21;;;;;;;2.22;1.20;;;-0.20;99.90;;;;;;5101714;28;20044;-74
2023/03/10 22:26:47;;;;;;;2.70;1.20;;;-0.20;99.90;;;;;;5099732;28;20448;-74
2023/03/10 22:29:12;;;;;;;2.67;1.10;;;-0.20;99.90;;;;;;5084046;28;20048;-72
2023/03/10 22:31:38;;;;;;;1.83;1.10;;;-0.20;99.90;;;;;;5098846;28;20487;-73
2023/03/10 22:34:04;;;;;;;2.45;1.50;;;-0.10;99.90;;;;;;5100624;28;20044;-75
2023/03/10 22:36:29;;;;;;;2.90;0.90;;;-0.20;99.90;;;;;;5097879;28;20051;-75
2023/03/10 22:38:55;;;;;;;3.03;1.30;;;-0.20;99.90;;;;;;5099313;28;20048;-75
2023/03/10 22:41:21;;;;;;;4.20;1.23;;;-0.30;99.90;;;;;;5081499;28;20047;-74
2023/03/10 22:43:47;;;;;;;2.55;1.10;;;-0.30;99.90;;;;;;5100712;28;20194;-76
2023/03/10 22:46:15;;;;;;;1.52;1.10;;;-0.40;99.90;;;;;;5103581;28;20048;-76
2023/03/10 22:48:42;;;;;;;2.08;1.10;;;-0.40;99.90;;;;;;5096074;28;20316;-73
2023/03/10 22:51:11;;;;;;;1.60;1.00;;;0.00;99.90;;;;;;5104127;28;20043;-75
2023/03/10 22:53:36;;;;;;;1.80;1.20;;;0.20;99.90;;;;;;5100607;28;20151;-73
2023/03/10 22:56:02;;;;;;;2.90;0.80;;;-0.30;99.90;;;;;;5121545;27;20084;-72
2023/03/10 22:58:28;;;;;;;1.88;0.98;;;-0.40;99.90;;;;;;5087219;28;20047;-73
2023/03/10 23:00:54;;;;;;;2.35;0.93;;;0.00;99.90;;;;;;5098748;28;20050;-74
2023/03/10 23:03:19;;;;;;;2.60;1.20;;;-0.40;99.90;;;;;;5096271;28;20485;-75
2023/03/10 23:05:45;;;;;;;1.90;0.90;;;-0.10;99.90;;;;;;5115375;27;20043;-76
2023/03/10 23:08:11;;;;;;;2.50;0.73;;;-0.50;99.90;;;;;;5091783;28;20055;-72
2023/03/10 23:10:39;;;;;;;2.03;1.00;;;-0.50;99.90;;;;;;5101235;28;20036;-75
2023/03/10 23:13:07;;;;;;;1.90;0.80;;;-0.50;99.90;;;;;;5082840;28;20044;-73
2023/03/10 23:15:35;;;;;;;1.15;0.90;;;-0.50;99.90;;;;;;5106360;28;20082;-76
2023/03/10 23:18:02;;;;;;;1.48;0.90;;;-0.50;99.90;;;;;;5095043;28;20049;-76
2023/03/10 23:20:31;;;;;;;3.22;0.90;;;-0.50;99.90;;;;;;5090313;28;20051;-73
2023/03/10 23:23:00;;;;;;;1.70;0.95;;;-0.40;99.90;;;;;;5086280;28;20472;-74
2023/03/10 23:25:32;;;;;;;1.30;0.90;;;-0.40;99.90;;;;;;5104543;28;20502;-74
2023/03/10 23:27:58;;;;;;;3.03;1.00;;;-0.30;99.90;;;;;;5109166;28;20083;-74
2023/03/10 23:30:24;;;;;;;1.45;0.90;;;-0.30;99.90;;;;;;5107256;28;20134;-75
2023/03/10 23:32:50;;;;;;;1.60;0.88;;;0.10;99.90;;;;;;5087554;28;20043;-73
2023/03/10 23:35:34;;;;;;;1.85;0.95;;;-0.20;99.90;;;;;;5097872;28;20048;-73
2023/03/10 23:38:01;;;;;;;2.80;0.98;;;-0.20;99.90;;;;;;5100776;28;20059;-75
2023/03/10 23:40:27;;;;;;;2.63;0.80;;;0.20;99.90;;;;;;5101195;28;20146;-75
2023/03/10 23:42:55;;;;;;;1.70;0.88;;;-0.20;99.90;;;;;;5119429;28;20158;-75
2023/03/10 23:45:23;;;;;;;3.15;1.08;;;-0.30;99.90;;;;;;5084013;28;20141;-75
2023/03/10 23:47:50;;;;;;;3.40;1.00;;;-0.30;99.90;;;;;;5115271;28;20571;-74
2023/03/10 23:50:26;;;;;;;1.83;1.00;;;-0.40;99.90;;;;;;5100173;28;20435;-74
2023/03/10 23:52:52;;;;;;;1.38;0.90;;;-0.40;99.90;;;;;;5097583;28;20563;-75
2023/03/10 23:55:21;;;;;;;1.92;0.98;;;-0.60;99.90;;;;;;5082335;28;20040;-74
2023/03/10 23:57:47;;;;;;;2.47;1.00;;;-0.30;99.90;;;;;;5097271;28;20086;-74
